Time;durP1;ratioP1;P1;durP2;ratioP2;P2;SDS_P1;SDS_P2;PMS_P1;PMS_P2;Temp;Humidity;BMP_temperature;BMP_pressure;BME280_temperature;BME280_humidity;BME280_pressure;Samples;Min_cycle;Max_cycle;Signal;HPM_P1;HPM_P2
2022/03/13 00:01:01;;;;;;;12.03;5.17;;;;;;;-0.64;40.98;101281.56;5000890;28;20030;-71
2022/03/13 00:03:28;;;;;;;9.33;4.67;;;;;;;-0.68;40.34;101274.47;4999212;28;20022;-72
2022/03/13 00:05:54;;;;;;;9.50;4.93;;;;;;;-0.72;40.42;101277.69;5013195;28;20495;-71
2022/03/13 00:08:29;;;;;;;12.50;4.87;;;;;;;-0.76;41.36;101273.16;5000331;28;20033;-71
2022/03/13 00:11:01;;;;;;;18.60;5.30;;;;;;;-0.81;41.08;101279.78;4996654;28;20038;-72
2022/03/13 00:13:31;;;;;;;;;;;;;;;-0.88;40.92;101273.41;5008762;28;20049;-71
2022/03/13 00:16:03;;;;;;;9.13;5.10;;;;;;;-0.89;40.55;101280.31;5001130;28;20005;-71
2022/03/13 00:18:28;;;;;;;9.90;4.85;;;;;;;-0.91;40.92;101275.88;4999117;28;20068;-71
2022/03/13 00:20:55;;;;;;;9.83;5.40;;;;;;;-0.93;41.62;101273.19;4999558;28;20440;-71
2022/03/13 00:23:22;;;;;;;9.03;4.90;;;;;;;-0.95;40.96;101274.78;5000675;28;20073;-71
2022/03/13 00:25:47;;;;;;;7.70;4.50;;;;;;;-0.99;41.24;101270.28;4998108;28;20404;-71
2022/03/13 00:28:13;;;;;;;11.30;4.80;;;;;;;-1.00;41.52;101275.38;5000535;28;20037;-71
2022/03/13 00:30:40;;;;;;;10.77;5.23;;;;;;;-1.03;41.13;101273.50;5009939;28;20027;-71
2022/03/13 00:33:06;;;;;;;8.37;4.10;;;;;;;-1.09;41.35;101278.38;4997134;28;20053;-71
2022/03/13 00:35:32;;;;;;;10.83;5.03;;;;;;;-1.12;41.76;101279.09;5001145;28;20471;-72
2022/03/13 00:37:58;;;;;;;9.27;4.73;;;;;;;-1.14;42.15;101278.13;4998516;28;20038;-71
2022/03/13 00:40:23;;;;;;;9.50;4.23;;;;;;;-1.09;40.97;101278.38;4999585;28;20037;-71
2022/03/13 00:42:50;;;;;;;8.43;4.53;;;;;;;-1.01;41.47;101276.19;4995660;28;20038;-71
2022/03/13 00:45:15;;;;;;;10.50;4.33;;;;;;;-0.96;40.82;101274.72;5000921;28;20025;-70
2022/03/13 00:47:40;;;;;;;11.00;4.83;;;;;;;-0.92;41.33;101267.22;5000527;28;20509;-71
2022/03/13 00:50:07;;;;;;;8.30;4.23;;;;;;;-0.88;40.61;101269.13;5010921;28;20516;-71
2022/03/13 00:52:32;;;;;;;9.63;4.60;;;;;;;-0.81;40.88;101264.25;4998655;28;20133;-71
2022/03/13 00:54:59;;;;;;;11.90;5.60;;;;;;;-0.79;40.99;101268.69;5000772;28;20042;-71
2022/03/13 00:57:24;;;;;;;9.43;4.40;;;;;;;-0.75;40.26;101262.88;5000189;28;20042;-71
2022/03/13 00:59:50;;;;;;;10.07;4.87;;;;;;;-0.70;40.66;101270.91;5007588;28;20039;-71
2022/03/13 01:02:15;;;;;;;9.43;4.60;;;;;;;-0.66;40.15;101270.22;4997493;28;20481;-73
2022/03/13 01:04:49;;;;;;;8.40;3.93;;;;;;;-0.62;39.66;101266.09;4997523;28;20049;-71
2022/03/13 01:07:14;;;;;;;8.23;4.50;;;;;;;-0.57;40.29;101265.53;5000037;28;20122;-72
2022/03/13 01:09:41;;;;;;;8.07;4.33;;;;;;;-0.53;39.52;101261.38;4998900;28;20068;-72
2022/03/13 01:12:07;;;;;;;10.53;4.87;;;;;;;-0.51;40.10;101259.75;4998115;28;20062;-71
2022/03/13 01:14:35;;;;;;;10.80;4.63;;;;;;;-0.51;39.74;101251.97;5000425;28;20583;-71
2022/03/13 01:17:09;;;;;;;10.57;5.00;;;;;;;-0.48;39.48;101252.13;4998190;28;20074;-71
2022/03/13 01:19:37;;;;;;;10.97;4.57;;;;;;;-0.47;39.59;101261.69;5012816;28;20041;-71
2022/03/13 01:22:03;;;;;;;8.77;4.17;;;;;;;-0.46;40.13;101256.56;4997282;28;20044;-71
2022/03/13 01:24:45;;;;;;;8.20;4.10;;;;;;;-0.48;39.49;101255.59;4999342;28;20030;-72
2022/03/13 01:27:12;;;;;;;9.23;4.00;;;;;;;-0.51;39.66;101251.97;5000043;28;20046;-72
2022/03/13 01:29:37;;;;;;;13.67;5.07;;;;;;;-0.52;39.93;101243.31;4999134;28;20034;-72
2022/03/13 01:32:03;;;;;;;9.53;4.63;;;;;;;-0.51;39.12;101250.25;4996385;28;20045;-71
2022/03/13 01:34:32;;;;;;;9.23;4.40;;;;;;;-0.50;40.21;101244.28;4999597;28;20524;-71
2022/03/13 01:36:58;;;;;;;10.70;4.67;;;;;;;-0.53;39.89;101249.28;4997706;28;20691;-71
2022/03/13 01:39:24;;;;;;;10.03;4.30;;;;;;;-0.55;40.52;101250.00;4998811;28;20038;-71
2022/03/13 01:41:51;;;;;;;9.07;4.47;;;;;;;-0.63;40.21;101253.94;4999525;28;20034;-71
2022/03/13 01:44:20;;;;;;;7.90;4.63;;;;;;;-0.69;41.37;101249.34;5000594;28;20046;-71
2022/03/13 01:46:46;;;;;;;8.53;4.43;;;;;;;-0.74;40.86;101255.97;5002279;28;20605;-71
2022/03/13 01:49:12;;;;;;;9.90;4.83;;;;;;;-0.79;40.28;101252.25;4998686;28;20027;-71
2022/03/13 01:51:38;;;;;;;10.90;4.83;;;;;;;-0.78;40.39;101248.88;5005617;28;20037;-71
2022/03/13 01:54:09;;;;;;;8.60;4.63;;;;;;;-0.76;40.83;101247.22;5000715;28;20096;-71
2022/03/13 01:56:36;;;;;;;10.40;4.27;;;;;;;-0.78;40.28;101247.16;4999937;28;20034;-72
2022/03/13 01:59:03;;;;;;;8.07;4.23;;;;;;;-0.79;40.48;101236.72;5017952;28;20087;-71
2022/03/13 02:01:29;;;;;;;10.37;4.30;;;;;;;-0.82;40.32;101241.75;4997150;28;20031;-71
2022/03/13 02:03:55;;;;;;;8.77;4.27;;;;;;;-0.84;40.15;101233.00;4997291;28;20719;-71
2022/03/13 02:06:21;;;;;;;7.27;3.83;;;;;;;-0.84;41.11;101230.41;4998530;28;20516;-71
2022/03/13 02:08:47;;;;;;;11.93;4.70;;;;;;;-0.83;40.92;101230.50;4999103;28;20068;-71
2022/03/13 02:11:19;;;;;;;8.13;4.17;;;;;;;-0.81;40.99;101234.06;4996561;28;20039;-71
2022/03/13 02:13:47;;;;;;;9.90;4.70;;;;;;;-0.81;41.08;101233.16;5006108;28;20062;-71
2022/03/13 02:16:14;;;;;;;8.00;3.97;;;;;;;-0.85;41.49;101224.34;5016660;28;20383;-71
2022/03/13 02:18:40;;;;;;;9.20;4.70;;;;;;;-0.86;41.19;101225.16;5023013;28;20480;-71
2022/03/13 02:21:07;;;;;;;12.00;4.83;;;;;;;-0.84;41.07;101223.50;5013946;28;20133;-71
2022/03/13 02:23:33;;;;;;;8.97;4.23;;;;;;;-0.81;40.89;101228.88;5022410;28;20061;-71
2022/03/13 02:26:01;;;;;;;9.80;4.03;;;;;;;-0.78;40.28;101233.34;5020332;28;20077;-71
2022/03/13 02:28:29;;;;;;;8.77;3.87;;;;;;;-0.78;40.87;101228.16;5021055;28;20121;-71
2022/03/13 02:31:01;;;;;;;8.37;4.53;;;;;;;-0.80;40.70;101233.25;5026086;28;20024;-71
2022/03/13 02:33:26;;;;;;;9.70;4.10;;;;;;;-0.77;39.92;101230.78;5014056;28;20448;-71
2022/03/13 02:36:00;;;;;;;7.23;3.97;;;;;;;-0.77;40.25;101224.72;5026935;28;20031;-71
2022/03/13 02:38:28;;;;;;;9.83;4.37;;;;;;;-0.77;39.87;101216.94;5022045;28;20488;-71
2022/03/13 02:40:55;;;;;;;10.00;4.17;;;;;;;-0.79;39.97;101216.88;5019573;28;20044;-72
2022/03/13 02:43:22;;;;;;;9.13;4.40;;;;;;;-0.75;39.61;101213.63;4996501;28;20065;-72
2022/03/13 02:45:47;;;;;;;8.23;4.20;;;;;;;-0.68;39.66;101220.03;4998736;28;20088;-72
2022/03/13 02:48:15;;;;;;;10.33;4.57;;;;;;;-0.72;40.24;101215.47;5001684;28;20455;-71
2022/03/13 02:50:40;;;;;;;9.17;4.20;;;;;;;-0.77;39.84;101211.78;4999868;28;20031;-71
2022/03/13 02:53:07;;;;;;;9.27;4.20;;;;;;;-0.84;39.95;101212.25;5002464;28;20098;-71
2022/03/13 02:55:32;;;;;;;10.53;3.87;;;;;;;-0.89;40.25;101209.47;5000606;28;20038;-71
2022/03/13 02:57:58;;;;;;;7.97;4.30;;;;;;;-0.92;40.92;101209.28;5015835;28;20041;-72
2022/03/13 03:00:44;;;;;;;9.23;4.83;;;;;;;-0.94;40.55;101210.94;5002195;28;20034;-71
2022/03/13 03:03:12;;;;;;;11.37;4.50;;;;;;;-0.95;40.86;101215.19;4998447;28;20048;-71
2022/03/13 03:05:38;;;;;;;11.83;4.73;;;;;;;-0.96;40.95;101216.03;5017905;28;20075;-71
2022/03/13 03:08:04;;;;;;;9.00;4.07;;;;;;;-0.96;41.07;101218.59;5020484;28;20072;-71
2022/03/13 03:10:29;;;;;;;9.30;4.10;;;;;;;-0.95;40.10;101222.97;5001009;28;20042;-71
2022/03/13 03:12:55;;;;;;;9.37;3.97;;;;;;;-0.96;40.78;101221.19;4999820;28;20039;-72
2022/03/13 03:15:21;;;;;;;9.67;3.97;;;;;;;-0.95;40.05;101224.69;5002133;28;20033;-72
2022/03/13 03:17:48;;;;;;;8.73;4.30;;;;;;;-0.94;41.09;101231.66;5024050;28;20070;-72
2022/03/13 03:20:13;;;;;;;8.87;4.17;;;;;;;-0.97;40.65;101227.22;5000834;28;20129;-71
2022/03/13 03:22:38;;;;;;;9.40;4.03;;;;;;;-0.98;41.09;101230.59;5001259;28;20452;-72
2022/03/13 03:25:05;;;;;;;9.40;4.43;;;;;;;-0.99;40.41;101234.00;5006596;28;20061;-71
2022/03/13 03:27:31;;;;;;;9.20;4.33;;;;;;;-0.97;40.23;101231.47;4999412;28;20060;-72
2022/03/13 03:29:58;;;;;;;9.43;3.87;;;;;;;-0.95;40.37;101229.84;5001073;28;20034;-72
2022/03/13 03:32:23;;;;;;;9.80;4.80;;;;;;;-0.97;40.82;101227.22;4999403;28;20112;-72
2022/03/13 03:34:49;;;;;;;7.83;4.03;;;;;;;-1.01;40.47;101230.44;4999113;28;20130;-72
2022/03/13 03:37:14;;;;;;;9.27;4.40;;;;;;;-1.02;41.15;101227.75;5021324;28;20073;-72
2022/03/13 03:39:41;;;;;;;8.60;4.00;;;;;;;-1.01;40.71;101232.16;5003282;28;20113;-72
2022/03/13 03:42:07;;;;;;;9.07;4.23;;;;;;;-1.04;41.33;101225.09;5027098;28;20537;-72
2022/03/13 03:44:32;;;;;;;8.60;4.03;;;;;;;-1.07;40.85;101214.59;5015523;28;20034;-72
2022/03/13 03:46:57;;;;;;;7.77;4.23;;;;;;;-1.11;41.34;101218.69;5001974;28;20649;-72
2022/03/13 03:49:23;;;;;;;7.27;4.10;;;;;;;-1.15;41.20;101221.06;5011933;28;20042;-72
2022/03/13 03:51:49;;;;;;;7.77;4.00;;;;;;;-1.18;41.70;101221.81;4999882;28;20173;-72
2022/03/13 03:54:14;;;;;;;10.80;4.67;;;;;;;-1.21;41.00;101215.56;5021141;28;20577;-72
2022/03/13 03:56:40;;;;;;;8.17;4.43;;;;;;;-1.25;41.42;101218.81;5025968;28;20026;-71
2022/03/13 03:59:06;;;;;;;7.70;4.03;;;;;;;-1.28;42.00;101221.22;5001505;28;20117;-72
2022/03/13 04:01:37;;;;;;;8.37;4.47;;;;;;;-1.33;41.77;101221.88;4999046;28;20389;-72
2022/03/13 04:04:04;;;;;;;13.57;5.40;;;;;;;-1.36;42.32;101226.91;5014620;28;20113;-72
2022/03/13 04:06:29;;;;;;;10.33;4.90;;;;;;;-1.40;41.67;101224.94;5027956;28;20041;-71
2022/03/13 04:08:55;;;;;;;9.27;4.00;;;;;;;-1.45;42.40;101221.22;5044199;28;20393;-71
2022/03/13 04:11:20;;;;;;;8.67;4.00;;;;;;;-1.46;42.10;101224.63;5010571;28;20042;-72
2022/03/13 04:13:47;;;;;;;8.87;4.53;;;;;;;-1.50;42.20;101217.50;5000895;28;20496;-72
2022/03/13 04:16:13;;;;;;;8.23;4.27;;;;;;;-1.54;42.83;101220.75;5038638;27;20041;-71
2022/03/13 04:18:39;;;;;;;9.40;4.20;;;;;;;-1.60;42.32;101226.50;5015035;28;20095;-72
2022/03/13 04:21:05;;;;;;;10.37;4.57;;;;;;;-1.61;42.62;101223.81;5015441;28;20071;-72
2022/03/13 04:23:35;;;;;;;7.27;3.60;;;;;;;-1.66;42.50;101220.06;5020425;28;20030;-71
2022/03/13 04:26:03;;;;;;;8.23;3.60;;;;;;;-1.69;42.57;101225.09;5031686;27;20031;-72
2022/03/13 04:28:29;;;;;;;7.23;3.83;;;;;;;-1.73;42.69;101224.00;5031418;28;20116;-71
2022/03/13 04:30:56;;;;;;;7.33;3.70;;;;;;;-1.77;42.70;101217.78;5011291;28;20118;-72
2022/03/13 04:33:22;;;;;;;7.60;3.63;;;;;;;-1.82;43.13;101221.81;5020787;28;20049;-72
2022/03/13 04:35:49;;;;;;;9.67;4.43;;;;;;;-1.85;42.71;101224.25;5033673;28;20034;-71
2022/03/13 04:38:14;;;;;;;9.03;3.70;;;;;;;-1.90;43.41;101215.34;5004320;28;20117;-71
2022/03/13 04:40:39;;;;;;;8.03;4.20;;;;;;;-1.92;43.95;101216.94;5028082;28;20034;-72
2022/03/13 04:43:06;;;;;;;8.93;4.20;;;;;;;-1.94;44.38;101222.84;5025920;28;20377;-71
2022/03/13 04:45:31;;;;;;;7.67;4.20;;;;;;;-1.96;43.69;101221.91;5021986;28;20040;-71
2022/03/13 04:47:56;;;;;;;7.70;3.70;;;;;;;-2.00;43.49;101218.22;5014812;28;20030;-72
2022/03/13 04:50:22;;;;;;;9.27;4.30;;;;;;;-2.02;44.69;101218.16;5010123;28;20037;-71
2022/03/13 04:52:47;;;;;;;8.93;4.30;;;;;;;-2.02;43.88;101220.75;5036587;28;20049;-71
2022/03/13 04:55:13;;;;;;;9.73;4.13;;;;;;;-2.04;44.08;101218.88;5004944;28;20060;-71
2022/03/13 04:57:38;;;;;;;9.03;4.27;;;;;;;-2.08;45.14;101216.91;5002104;28;20449;-71
2022/03/13 05:00:05;;;;;;;7.47;4.07;;;;;;;-2.11;44.69;101217.63;5008556;28;20038;-71
2022/03/13 05:02:30;;;;;;;7.57;4.00;;;;;;;-2.12;44.96;101221.03;5013128;28;20046;-72
2022/03/13 05:04:56;;;;;;;8.33;4.00;;;;;;;-2.13;44.82;101215.78;5016501;28;20043;-72
2022/03/13 05:07:21;;;;;;;8.97;4.43;;;;;;;-2.18;44.81;101220.69;5006092;28;20041;-72
2022/03/13 05:09:47;;;;;;;6.93;3.70;;;;;;;-2.19;45.10;101218.03;5011255;28;20052;-71
2022/03/13 05:12:14;;;;;;;8.13;3.90;;;;;;;-2.22;45.27;101218.75;5020479;28;20452;-72
2022/03/13 05:14:40;;;;;;;11.83;4.40;;;;;;;-2.25;45.41;101227.22;5036560;28;20488;-72
2022/03/13 05:17:05;;;;;;;7.70;3.93;;;;;;;-2.27;44.87;101223.66;5007071;28;20124;-72
2022/03/13 05:19:30;;;;;;;8.43;4.20;;;;;;;-2.26;45.57;101230.59;5001439;28;20120;-72
2022/03/13 05:21:56;;;;;;;8.57;3.77;;;;;;;-2.28;45.86;101232.22;5026318;28;20066;-71
2022/03/13 05:24:21;;;;;;;13.43;5.47;;;;;;;-2.29;45.91;101229.53;5003846;28;20049;-72
2022/03/13 05:26:47;;;;;;;7.67;4.20;;;;;;;-2.27;45.91;101234.00;5017905;28;20553;-72
2022/03/13 05:29:12;;;;;;;10.00;4.27;;;;;;;-2.24;45.35;101233.28;5000424;28;20042;-71
2022/03/13 05:31:39;;;;;;;9.33;3.87;;;;;;;-2.23;45.78;101233.38;4997838;28;20042;-71
2022/03/13 05:34:05;;;;;;;9.27;4.30;;;;;;;-2.24;45.74;101239.31;4998426;28;20432;-71
2022/03/13 05:36:30;;;;;;;8.23;4.07;;;;;;;-2.23;45.16;101230.78;4999347;28;20034;-72
2022/03/13 05:38:56;;;;;;;8.70;3.80;;;;;;;-2.21;45.61;101241.19;5037350;28;20040;-72
2022/03/13 05:41:22;;;;;;;8.67;4.60;;;;;;;-2.18;45.76;101243.06;4999581;28;20042;-71
2022/03/13 05:43:48;;;;;;;8.43;4.40;;;;;;;-2.12;45.65;101240.81;4998530;28;20058;-72
2022/03/13 05:46:14;;;;;;;9.23;4.50;;;;;;;-2.09;45.67;101236.72;4996607;28;20046;-71
2022/03/13 05:48:39;;;;;;;8.00;4.40;;;;;;;-2.07;45.78;101242.88;5000046;28;20030;-71
2022/03/13 05:51:05;;;;;;;7.23;3.63;;;;;;;-2.03;45.90;101246.53;4997539;28;20069;-72
2022/03/13 05:53:30;;;;;;;9.07;4.57;;;;;;;-1.99;45.16;101246.78;5034340;28;20042;-72
2022/03/13 05:55:56;;;;;;;9.80;4.27;;;;;;;-1.95;45.56;101247.84;5010007;28;20124;-71
2022/03/13 05:58:23;;;;;;;9.10;4.23;;;;;;;-1.92;45.90;101253.16;4998146;28;20038;-71
2022/03/13 06:00:54;;;;;;;9.13;4.63;;;;;;;-1.85;45.74;101252.72;5035889;28;20038;-71
2022/03/13 06:03:21;;;;;;;7.90;3.80;;;;;;;-1.77;45.06;101243.69;4998391;28;20034;-71
2022/03/13 06:05:48;;;;;;;8.17;4.13;;;;;;;-1.69;44.81;101245.81;5008341;28;20066;-71
2022/03/13 06:08:14;;;;;;;7.60;4.40;;;;;;;-1.62;45.22;101250.50;5003701;28;20045;-72
2022/03/13 06:10:39;;;;;;;8.50;4.50;;;;;;;-1.56;45.28;101253.41;4997715;28;20035;-72
2022/03/13 06:13:04;;;;;;;7.23;3.80;;;;;;;-1.48;45.27;101246.94;5003155;28;20067;-72
2022/03/13 06:15:31;;;;;;;9.03;4.30;;;;;;;-1.43;44.84;101248.09;5002446;28;20030;-72
2022/03/13 06:17:58;;;;;;;10.97;4.73;;;;;;;-1.38;44.99;101251.81;4999909;28;20042;-72
2022/03/13 06:20:23;;;;;;;11.07;4.67;;;;;;;-1.26;44.78;101258.44;5010554;28;20370;-72
2022/03/13 06:22:49;;;;;;;10.17;4.40;;;;;;;-1.18;44.53;101252.88;5001434;28;20041;-71
2022/03/13 06:25:16;;;;;;;12.00;5.37;;;;;;;-1.06;44.28;101262.09;5000857;28;20129;-71
2022/03/13 06:27:42;;;;;;;9.50;4.77;;;;;;;-1.01;44.46;101261.53;5018169;28;20063;-71
2022/03/13 06:30:12;;;;;;;8.97;4.57;;;;;;;-0.90;44.77;101257.78;5000524;28;20030;-72
2022/03/13 06:32:38;;;;;;;7.50;4.00;;;;;;;-0.78;43.85;101259.25;5001448;28;20041;-72
2022/03/13 06:35:04;;;;;;;9.23;4.30;;;;;;;-0.70;44.28;101268.31;5005734;28;20166;-71
2022/03/13 06:37:29;;;;;;;9.27;4.70;;;;;;;-0.61;44.28;101268.75;4999390;28;20512;-72
2022/03/13 06:39:55;;;;;;;9.17;4.33;;;;;;;-0.52;43.76;101268.34;5000645;28;20049;-71
2022/03/13 06:42:20;;;;;;;10.07;4.47;;;;;;;-0.40;44.06;101270.66;5001172;28;20120;-72
2022/03/13 06:44:45;;;;;;;8.17;4.07;;;;;;;-0.32;43.42;101267.63;5002055;28;20041;-72
2022/03/13 06:47:11;;;;;;;8.20;4.23;;;;;;;-0.20;43.90;101271.66;4999742;28;20038;-72
2022/03/13 06:49:36;;;;;;;8.47;4.90;;;;;;;-0.10;43.41;101272.16;5002708;28;20065;-72
2022/03/13 06:52:02;;;;;;;8.47;4.57;;;;;;;0.02;42.80;101268.38;5017053;28;20052;-72
2022/03/13 06:54:27;;;;;;;8.33;4.27;;;;;;;0.14;43.28;101263.78;5021810;28;20034;-72
2022/03/13 06:56:53;;;;;;;6.90;3.67;;;;;;;0.27;42.53;101263.53;5008778;28;20035;-72
2022/03/13 06:59:18;;;;;;;9.07;4.87;;;;;;;0.35;42.03;101267.38;5006036;28;20033;-71
2022/03/13 07:01:43;;;;;;;10.67;5.17;;;;;;;0.45;42.22;101263.53;5007001;28;20042;-71
2022/03/13 07:04:09;;;;;;;10.80;4.93;;;;;;;0.55;41.95;101257.03;5008240;28;20090;-72
2022/03/13 07:06:35;;;;;;;9.00;4.27;;;;;;;0.65;42.14;101261.81;5008569;28;20030;-72
2022/03/13 07:09:02;;;;;;;10.15;4.53;;;;;;;0.77;41.65;101256.31;5013951;28;20417;-71
2022/03/13 07:11:28;;;;;;;9.03;4.30;;;;;;;0.88;41.47;101258.53;5020163;28;20068;-72
2022/03/13 07:13:53;;;;;;;8.90;5.18;;;;;;;1.00;41.08;101255.63;5026945;28;20046;-72
2022/03/13 07:16:19;;;;;;;9.35;4.63;;;;;;;1.11;40.65;101248.28;5028584;28;20091;-71
2022/03/13 07:18:45;;;;;;;8.15;4.60;;;;;;;1.23;40.50;101243.63;5000412;28;21308;-72
2022/03/13 07:21:12;;;;;;;7.70;4.30;;;;;;;1.37;41.08;101245.94;5002176;28;20516;-72
2022/03/13 07:23:39;;;;;;;7.68;4.25;;;;;;;1.47;40.75;101251.59;5013549;28;20145;-72
2022/03/13 07:26:04;;;;;;;9.95;5.00;;;;;;;1.61;40.52;101249.53;5012425;28;20076;-72
2022/03/13 07:28:30;;;;;;;8.40;4.40;;;;;;;1.72;40.40;101250.88;5004380;28;20026;-72
2022/03/13 07:30:58;;;;;;;8.85;4.07;;;;;;;1.83;40.54;101240.88;4998798;28;20046;-72
2022/03/13 07:33:24;;;;;;;8.70;4.22;;;;;;;1.94;39.68;101236.16;5000320;28;20038;-72
2022/03/13 07:35:50;;;;;;;9.38;4.53;;;;;;;2.11;39.48;101239.41;5013544;28;20523;-72
2022/03/13 07:38:16;;;;;;;9.20;5.00;;;;;;;2.31;38.86;101241.06;5042092;28;20182;-72
2022/03/13 07:40:42;;;;;;;8.95;4.90;;;;;;;2.54;36.31;101236.75;5009959;28;20046;-72
2022/03/13 07:43:09;;;;;;;8.38;4.97;;;;;;;2.83;36.04;101230.00;4999719;28;20082;-72
2022/03/13 07:45:34;;;;;;;8.90;4.80;;;;;;;3.05;35.57;101229.03;5000722;28;20125;-72
2022/03/13 07:47:59;;;;;;;12.82;5.55;;;;;;;3.27;34.19;101235.00;4999258;28;20033;-72
2022/03/13 07:50:29;;;;;;;9.15;4.55;;;;;;;3.50;34.22;101235.78;5001881;28;20072;-72
2022/03/13 07:52:55;;;;;;;7.97;4.63;;;;;;;3.63;33.76;101226.66;5020572;28;20031;-72
2022/03/13 07:55:22;;;;;;;8.70;5.03;;;;;;;3.72;33.13;101222.63;5006589;28;20143;-72
2022/03/13 07:57:48;;;;;;;7.93;4.70;;;;;;;3.84;33.03;101224.75;5013081;28;20115;-72
2022/03/13 08:00:17;;;;;;;8.30;4.43;;;;;;;3.97;32.76;101219.91;4998848;28;20193;-72
2022/03/13 08:02:45;;;;;;;8.75;5.07;;;;;;;4.08;32.57;101226.34;5000234;28;20050;-72
2022/03/13 08:05:11;;;;;;;8.52;4.80;;;;;;;4.19;32.66;101224.94;5014362;28;20045;-72
2022/03/13 08:07:36;;;;;;;8.13;4.60;;;;;;;4.26;32.20;101229.53;5012202;28;20030;-72
2022/03/13 08:10:02;;;;;;;9.93;5.50;;;;;;;4.36;31.75;101223.75;5004228;28;20050;-71
2022/03/13 08:12:28;;;;;;;10.70;4.90;;;;;;;4.47;32.37;101225.81;5003512;28;20164;-72
2022/03/13 08:14:53;;;;;;;9.63;5.15;;;;;;;4.55;32.25;101221.69;4999267;28;20139;-72
2022/03/13 08:17:18;;;;;;;9.95;5.20;;;;;;;4.63;31.26;101224.53;5001540;28;20069;-72
2022/03/13 08:19:44;;;;;;;8.48;4.85;;;;;;;4.71;31.41;101223.88;4998494;28;20050;-72
2022/03/13 08:22:09;;;;;;;10.20;4.63;;;;;;;4.78;30.48;101225.84;5002764;28;20045;-72
2022/03/13 08:24:34;;;;;;;9.05;5.10;;;;;;;4.88;30.74;101226.13;5032221;28;20041;-72
2022/03/13 08:27:00;;;;;;;10.10;4.93;;;;;;;4.96;30.90;101235.06;5000784;28;20030;-72
2022/03/13 08:29:25;;;;;;;7.60;4.40;;;;;;;5.04;29.84;101223.09;4998285;28;20516;-72
2022/03/13 08:31:51;;;;;;;7.75;4.47;;;;;;;5.13;30.20;101228.56;4998058;28;20034;-72
2022/03/13 08:34:19;;;;;;;8.23;4.70;;;;;;;5.22;29.71;101225.31;4999913;28;20131;-72
2022/03/13 08:36:46;;;;;;;8.57;4.70;;;;;;;5.22;28.17;101222.69;5011630;28;20496;-72
2022/03/13 08:39:11;;;;;;;7.40;4.53;;;;;;;5.38;29.38;101218.75;5000563;28;20037;-72
2022/03/13 08:41:37;;;;;;;8.50;4.75;;;;;;;5.46;28.93;101219.84;5007450;28;20025;-72
2022/03/13 08:44:03;;;;;;;8.82;5.20;;;;;;;5.55;28.94;101206.97;5010398;28;20488;-72
2022/03/13 08:46:28;;;;;;;9.05;5.20;;;;;;;5.74;28.08;101213.56;5007717;28;20038;-72
2022/03/13 08:48:54;;;;;;;9.57;5.20;;;;;;;5.80;27.97;101211.06;5008470;28;20121;-72
2022/03/13 08:51:21;;;;;;;7.90;4.80;;;;;;;5.88;28.27;101217.38;5013525;28;20038;-72
2022/03/13 08:53:47;;;;;;;8.32;5.05;;;;;;;5.90;27.43;101220.06;5007489;28;20147;-72
2022/03/13 08:56:13;;;;;;;8.73;4.93;;;;;;;6.00;28.50;101214.22;5003926;28;20062;-73
2022/03/13 08:58:42;;;;;;;9.23;4.95;;;;;;;6.11;27.68;101215.34;5007730;28;20034;-72
2022/03/13 09:01:08;;;;;;;7.75;4.55;;;;;;;6.18;27.75;101221.59;5005907;28;20112;-72
2022/03/13 09:03:34;;;;;;;11.50;5.57;;;;;;;6.23;26.95;101216.47;5003234;28;20045;-72
2022/03/13 09:05:59;;;;;;;9.52;4.40;;;;;;;6.29;27.16;101214.00;4996799;28;20077;-72
2022/03/13 09:08:26;;;;;;;7.82;5.05;;;;;;;6.39;26.63;101221.19;5000614;28;20141;-72
2022/03/13 09:10:52;;;;;;;9.30;4.50;;;;;;;6.49;27.52;101223.16;5009074;28;20185;-72
2022/03/13 09:13:20;;;;;;;9.00;4.70;;;;;;;6.61;27.01;101221.66;5005548;28;20049;-72
2022/03/13 09:15:46;;;;;;;8.85;4.20;;;;;;;6.70;26.48;101217.47;4999784;28;20037;-72
2022/03/13 09:18:11;;;;;;;7.95;4.50;;;;;;;6.80;27.17;101214.19;4997535;28;20129;-72
2022/03/13 09:20:36;;;;;;;8.38;4.53;;;;;;;6.88;26.30;101214.34;5000278;28;20113;-72
2022/03/13 09:23:06;;;;;;;8.07;4.57;;;;;;;6.95;26.34;101210.13;5013960;28;20032;-72
2022/03/13 09:25:31;;;;;;;8.48;4.43;;;;;;;7.06;26.48;101208.56;5017205;28;20049;-72
2022/03/13 09:27:57;;;;;;;8.52;4.25;;;;;;;7.14;25.89;101206.09;5000308;28;20038;-72
2022/03/13 09:30:22;;;;;;;8.80;4.50;;;;;;;7.18;25.91;101216.69;4997568;28;20526;-72
2022/03/13 09:32:49;;;;;;;8.00;4.50;;;;;;;7.26;26.08;101206.34;4999057;28;20033;-73
2022/03/13 09:35:16;;;;;;;9.95;4.80;;;;;;;7.27;25.15;101205.47;4999280;28;20077;-72
2022/03/13 09:37:41;;;;;;;7.25;4.43;;;;;;;7.39;26.08;101210.06;5006062;28;20105;-72
2022/03/13 09:40:09;;;;;;;10.18;4.43;;;;;;;7.51;25.96;101209.38;5008346;28;20464;-72
2022/03/13 09:42:35;;;;;;;10.57;4.43;;;;;;;7.60;25.73;101210.44;4998270;28;20496;-72
2022/03/13 09:45:00;;;;;;;8.38;4.07;;;;;;;7.66;25.01;101207.00;4998050;28;20034;-72
2022/03/13 09:47:28;;;;;;;9.27;4.57;;;;;;;7.72;24.80;101204.47;5005532;28;20034;-73
2022/03/13 09:49:53;;;;;;;8.32;4.40;;;;;;;7.84;24.67;101203.81;5008825;28;20034;-72
2022/03/13 09:52:19;;;;;;;7.03;4.15;;;;;;;7.98;24.88;101196.13;5008627;28;20036;-72
2022/03/13 09:54:44;;;;;;;8.85;4.32;;;;;;;8.05;24.12;101201.50;5020557;28;20068;-72
2022/03/13 09:57:09;;;;;;;6.85;4.00;;;;;;;8.11;23.94;101200.69;5014627;28;20499;-72
2022/03/13 09:59:35;;;;;;;7.10;4.18;;;;;;;8.17;24.08;101192.88;5011939;28;20680;-72
2022/03/13 10:02:08;;;;;;;6.50;3.72;;;;;;;8.32;23.46;101192.22;5016475;28;20041;-72
2022/03/13 10:04:33;;;;;;;;;;;;;;;8.34;23.66;101196.66;5010363;28;20487;-73
2022/03/13 10:07:08;;;;;;;7.07;4.35;;;;;;;8.47;23.48;101192.47;5008392;28;19919;-72
2022/03/13 10:09:37;;;;;;;7.80;3.95;;;;;;;8.61;23.99;101190.00;5009980;28;20469;-72
2022/03/13 10:12:08;;;;;;;6.30;4.03;;;;;;;8.68;22.56;101176.06;5016874;28;20042;-72
2022/03/13 10:14:35;;;;;;;9.18;4.40;;;;;;;8.75;22.35;101182.25;5000841;28;20045;-72
2022/03/13 10:17:00;;;;;;;6.85;4.05;;;;;;;8.87;22.77;101182.41;5001524;28;20037;-72
2022/03/13 10:19:28;;;;;;;6.20;3.78;;;;;;;8.95;22.39;101186.00;5002633;28;20121;-72
2022/03/13 10:22:01;;;;;;;7.05;3.88;;;;;;;9.01;21.81;101182.56;4999888;28;20042;-72
2022/03/13 10:24:28;;;;;;;7.78;4.15;;;;;;;9.10;22.37;101182.69;5021974;28;20083;-72
2022/03/13 10:27:10;;;;;;;6.65;3.78;;;;;;;9.17;21.62;101176.59;5007176;28;20037;-72
2022/03/13 10:29:36;;;;;;;8.30;3.97;;;;;;;9.26;21.68;101177.56;5002020;28;20030;-72
2022/03/13 10:32:02;;;;;;;7.60;3.70;;;;;;;9.32;21.15;101175.84;5011242;28;20553;-72
2022/03/13 10:34:35;;;;;;;6.38;3.70;;;;;;;9.46;21.55;101168.09;5022033;28;20038;-72
2022/03/13 10:37:01;;;;;;;7.32;3.50;;;;;;;9.56;21.65;101159.41;4999126;28;20042;-72
2022/03/13 10:39:27;;;;;;;7.25;3.67;;;;;;;9.62;21.14;101163.84;5005318;28;20034;-72
2022/03/13 10:42:04;;;;;;;7.95;3.13;;;;;;;9.69;20.76;101156.84;5021193;28;20084;-72
2022/03/13 10:44:42;;;;;;;6.47;3.83;;;;;;;9.79;20.87;101162.19;5000790;28;20037;-72
2022/03/13 10:47:10;;;;;;;6.05;3.67;;;;;;;9.84;20.78;101162.22;5000771;28;20041;-72
2022/03/13 10:49:44;;;;;;;9.80;3.80;;;;;;;9.95;20.30;101159.66;5000668;28;20068;-72
2022/03/13 10:52:22;;;;;;;6.32;3.22;;;;;;;10.05;20.80;101154.44;4998639;28;20430;-72
2022/03/13 10:54:48;;;;;;;6.50;3.47;;;;;;;10.09;20.20;101148.31;5003935;28;20038;-72
2022/03/13 10:57:13;;;;;;;7.32;3.80;;;;;;;10.18;20.14;101144.84;4982208;28;20042;-73
2022/03/13 10:59:43;;;;;;;9.80;3.60;;;;;;;10.29;19.88;101143.16;5001814;28;20050;-72
2022/03/13 11:02:21;;;;;;;8.02;3.70;;;;;;;10.40;20.38;101151.16;5001634;28;20112;-72
2022/03/13 11:04:52;;;;;;;8.75;3.30;;;;;;;10.52;19.35;101150.31;5020414;28;20430;-73
2022/03/13 11:07:19;;;;;;;5.57;3.35;;;;;;;10.55;20.07;101141.53;5039155;28;20506;-72
2022/03/13 11:09:45;;;;;;;6.32;2.95;;;;;;;10.61;19.76;101134.53;5013059;28;20053;-74
2022/03/13 11:12:20;;;;;;;5.38;3.22;;;;;;;10.74;20.28;101136.31;5005513;28;20026;-72
2022/03/13 11:14:50;;;;;;;6.45;3.20;;;;;;;10.76;18.90;101146.88;5002258;28;20422;-72
2022/03/13 11:17:21;;;;;;;7.03;3.30;;;;;;;10.94;19.69;101139.00;5000154;28;20030;-72
2022/03/13 11:19:49;;;;;;;5.57;3.08;;;;;;;11.01;18.90;101139.91;5000302;28;20150;-72
2022/03/13 11:22:17;;;;;;;5.93;3.10;;;;;;;11.06;19.81;101132.00;5002016;28;20069;-73
2022/03/13 11:24:44;;;;;;;4.63;2.80;;;;;;;11.06;19.03;101135.50;4999886;28;20034;-73